createdAt,value
2022-10-19T00:01:41.287Z,99.90
2022-10-19T00:04:08.958Z,99.90
2022-10-19T00:06:36.999Z,99.90
2022-10-19T00:09:09.451Z,99.90
2022-10-19T00:11:37.671Z,99.90
2022-10-19T00:14:04.895Z,99.90
2022-10-19T00:16:35.940Z,99.90
2022-10-19T00:19:06.236Z,99.90
2022-10-19T00:21:33.235Z,99.90
2022-10-19T00:23:59.846Z,99.90
2022-10-19T00:26:26.843Z,99.90
2022-10-19T00:28:55.409Z,99.90
2022-10-19T00:31:22.856Z,99.90
2022-10-19T00:33:49.495Z,99.90
2022-10-19T00:36:18.511Z,99.90
2022-10-19T00:38:45.903Z,99.90
2022-10-19T00:41:12.838Z,99.90
2022-10-19T00:43:56.594Z,99.90
2022-10-19T00:46:24.111Z,99.90
2022-10-19T00:48:52.991Z,99.90
2022-10-19T00:51:20.292Z,99.90
2022-10-19T00:53:47.101Z,99.90
2022-10-19T00:56:15.779Z,99.90
2022-10-19T00:58:43.894Z,99.90
2022-10-19T01:01:16.091Z,99.90
2022-10-19T01:03:43.238Z,99.90
2022-10-19T01:06:11.642Z,99.90
2022-10-19T01:08:38.293Z,99.90
2022-10-19T01:11:14.221Z,99.90
2022-10-19T01:14:04.062Z,99.90
2022-10-19T01:17:01.380Z,99.90
2022-10-19T01:20:06.898Z,99.90
2022-10-19T01:22:51.499Z,99.90
2022-10-19T01:25:48.836Z,99.90
2022-10-19T01:28:24.294Z,99.90
2022-10-19T01:31:01.847Z,99.90
2022-10-19T01:33:44.488Z,99.90
2022-10-19T01:36:21.484Z,99.90
2022-10-19T01:39:06.951Z,99.90
2022-10-19T01:41:55.356Z,99.90
2022-10-19T01:44:31.240Z,99.90
2022-10-19T01:47:05.285Z,99.90
2022-10-19T01:49:46.913Z,99.90
2022-10-19T01:52:17.065Z,99.90
2022-10-19T01:54:49.171Z,99.90
2022-10-19T01:57:39.662Z,99.90
2022-10-19T02:00:09.746Z,99.90
2022-10-19T02:02:44.745Z,99.90
2022-10-19T02:05:12.373Z,99.90
2022-10-19T02:07:41.357Z,99.90
2022-10-19T02:10:08.520Z,99.90
2022-10-19T02:12:36.777Z,99.90
2022-10-19T02:15:10.926Z,99.90
2022-10-19T02:17:44.014Z,99.90
2022-10-19T02:20:10.867Z,99.90
2022-10-19T02:22:37.691Z,99.90
2022-10-19T02:25:05.446Z,99.90
2022-10-19T02:27:32.638Z,99.90
2022-10-19T02:29:59.355Z,99.90
2022-10-19T02:32:27.103Z,99.90
2022-10-19T02:34:54.354Z,99.90
2022-10-19T02:37:23.421Z,99.90
2022-10-19T02:39:52.237Z,99.90
2022-10-19T02:42:43.895Z,99.90
2022-10-19T02:45:22.203Z,99.90
2022-10-19T02:47:54.428Z,99.90
2022-10-19T02:50:22.250Z,99.90
2022-10-19T02:52:48.874Z,99.90
2022-10-19T02:55:15.648Z,99.90
2022-10-19T02:57:42.293Z,99.90
2022-10-19T03:00:09.651Z,99.90
2022-10-19T03:02:36.312Z,99.90
2022-10-19T03:05:06.586Z,99.90
2022-10-19T03:07:33.561Z,99.90
2022-10-19T03:10:00.429Z,99.90
2022-10-19T03:12:27.107Z,99.90
2022-10-19T03:14:53.897Z,99.90
2022-10-19T03:17:20.544Z,99.90
2022-10-19T03:19:47.220Z,99.90
2022-10-19T03:22:14.927Z,99.90
2022-10-19T03:24:41.639Z,99.90
2022-10-19T03:27:08.362Z,99.90
2022-10-19T03:29:35.026Z,99.90
2022-10-19T03:32:01.675Z,99.90
2022-10-19T03:34:28.509Z,99.90
2022-10-19T03:36:56.543Z,99.90
2022-10-19T03:39:23.204Z,99.90
2022-10-19T03:41:49.850Z,99.90
2022-10-19T03:44:16.890Z,99.90
2022-10-19T03:46:43.599Z,99.90
2022-10-19T03:49:11.246Z,99.90
2022-10-19T03:51:38.044Z,99.90
2022-10-19T03:54:07.561Z,99.90
2022-10-19T03:56:35.773Z,99.90
2022-10-19T03:59:04.019Z,99.90
2022-10-19T04:01:37.122Z,99.90
2022-10-19T04:04:07.255Z,99.90
2022-10-19T04:06:36.840Z,99.90
2022-10-19T04:09:05.957Z,99.90
2022-10-19T04:11:34.967Z,99.90
2022-10-19T04:14:02.191Z,99.90
2022-10-19T04:16:30.809Z,99.90
2022-10-19T04:18:58.116Z,99.90
2022-10-19T04:21:26.014Z,99.90
2022-10-19T04:23:57.123Z,99.90
2022-10-19T04:26:24.038Z,99.90
2022-10-19T04:28:50.744Z,99.90
2022-10-19T04:31:17.542Z,99.90
2022-10-19T04:33:44.394Z,99.90
2022-10-19T04:36:12.432Z,99.90
2022-10-19T04:38:39.516Z,99.90
2022-10-19T04:41:08.786Z,99.90
2022-10-19T04:43:36.296Z,99.90
2022-10-19T04:46:17.825Z,99.90
2022-10-19T04:48:45.616Z,99.90
2022-10-19T04:51:13.078Z,99.90
2022-10-19T04:53:40.708Z,99.90
2022-10-19T04:56:09.510Z,99.90
2022-10-19T04:58:36.244Z,99.90
2022-10-19T05:01:11.456Z,99.90
2022-10-19T05:03:38.417Z,99.90
2022-10-19T05:06:08.926Z,99.90
2022-10-19T05:08:36.449Z,99.90
2022-10-19T05:11:08.937Z,99.90
2022-10-19T05:13:36.117Z,99.90
2022-10-19T05:16:05.716Z,99.90
2022-10-19T05:18:32.680Z,99.90
2022-10-19T05:21:10.216Z,99.90
2022-10-19T05:23:36.916Z,99.90
2022-10-19T05:26:11.923Z,99.90
2022-10-19T05:28:38.930Z,99.90
2022-10-19T05:31:17.041Z,99.90
2022-10-19T05:33:44.493Z,99.90
2022-10-19T05:36:42.005Z,99.90
2022-10-19T05:39:17.060Z,99.90
2022-10-19T05:41:45.168Z,99.90
2022-10-19T05:44:17.616Z,99.90
2022-10-19T05:46:44.931Z,99.90
2022-10-19T05:49:13.039Z,99.90
2022-10-19T05:51:40.438Z,99.90
2022-10-19T05:54:07.879Z,99.90
2022-10-19T05:56:34.683Z,99.90
2022-10-19T05:59:03.603Z,99.90
2022-10-19T06:01:31.389Z,99.90
2022-10-19T06:03:59.592Z,99.90
2022-10-19T06:06:27.298Z,99.90
2022-10-19T06:08:56.293Z,99.90
2022-10-19T06:11:31.449Z,99.90
2022-10-19T06:13:59.603Z,99.90
2022-10-19T06:16:27.353Z,99.90
2022-10-19T06:18:55.065Z,99.90
2022-10-19T06:21:23.798Z,99.90
2022-10-19T06:23:55.359Z,99.90
2022-10-19T06:26:22.533Z,99.90
2022-10-19T06:28:50.027Z,99.90
2022-10-19T06:31:17.829Z,99.90
2022-10-19T06:33:48.533Z,99.90
2022-10-19T06:36:21.998Z,99.90
2022-10-19T06:38:49.462Z,99.90
2022-10-19T06:41:16.592Z,99.90
2022-10-19T06:43:43.587Z,99.90
2022-10-19T06:46:13.193Z,99.90
2022-10-19T06:48:40.010Z,99.90
2022-10-19T06:51:07.699Z,99.90
2022-10-19T06:53:35.373Z,99.90
2022-10-19T06:56:05.189Z,99.90
2022-10-19T06:58:35.468Z,99.90
2022-10-19T07:01:03.267Z,99.90
2022-10-19T07:03:30.488Z,99.90
2022-10-19T07:06:00.651Z,99.90
2022-10-19T07:08:29.814Z,99.90
2022-10-19T07:10:59.677Z,99.90
2022-10-19T07:13:27.565Z,99.90
2022-10-19T07:16:05.719Z,99.90
2022-10-19T07:18:34.329Z,99.90
2022-10-19T07:21:03.703Z,99.90
2022-10-19T07:23:34.019Z,99.90
2022-10-19T07:26:18.434Z,99.90
2022-10-19T07:28:46.997Z,99.90
2022-10-19T07:31:17.850Z,99.90
2022-10-19T07:33:44.847Z,99.90
2022-10-19T07:36:13.658Z,99.90
2022-10-19T07:38:40.527Z,99.90
2022-10-19T07:41:12.874Z,99.90
2022-10-19T07:43:40.331Z,99.90
2022-10-19T07:46:10.699Z,99.90
2022-10-19T07:48:37.391Z,99.90
2022-10-19T07:51:06.682Z,99.90
2022-10-19T07:53:34.547Z,99.90
2022-10-19T07:56:16.101Z,99.90
2022-10-19T07:58:43.155Z,99.90
2022-10-19T08:01:16.003Z,99.90
2022-10-19T08:04:31.730Z,99.90
2022-10-19T08:06:30.369Z,99.90
2022-10-19T08:08:57.480Z,99.90
2022-10-19T08:11:28.590Z,99.90
2022-10-19T08:13:55.878Z,99.90
2022-10-19T08:16:24.098Z,99.90
2022-10-19T08:18:52.152Z,99.90
2022-10-19T08:21:19.004Z,99.90
2022-10-19T08:23:45.656Z,99.90
2022-10-19T08:26:12.599Z,99.90
2022-10-19T08:28:39.480Z,99.90
2022-10-19T08:31:18.957Z,99.90
2022-10-19T08:33:46.010Z,99.90
2022-10-19T08:36:13.517Z,99.90
2022-10-19T08:38:41.518Z,99.90
2022-10-19T08:41:14.069Z,99.90
2022-10-19T08:43:53.984Z,99.90
2022-10-19T08:46:49.056Z,99.90
2022-10-19T08:49:20.575Z,99.90
2022-10-19T08:51:54.844Z,99.90
2022-10-19T08:54:21.760Z,99.90
2022-10-19T08:57:15.230Z,99.90
2022-10-19T08:59:57.841Z,99.90
2022-10-19T09:02:42.210Z,99.90
2022-10-19T09:05:59.568Z,99.90
2022-10-19T09:08:26.429Z,99.90
2022-10-19T09:10:55.396Z,99.90
2022-10-19T09:13:47.245Z,99.90
2022-10-19T09:16:25.179Z,99.90
2022-10-19T09:21:46.360Z,99.90
2022-10-19T09:24:34.444Z,99.90
2022-10-19T09:27:02.516Z,99.90
2022-10-19T09:29:38.349Z,99.90
2022-10-19T09:32:15.869Z,99.90
2022-10-19T09:35:22.213Z,99.90
2022-10-19T09:37:50.819Z,99.90
2022-10-19T09:40:23.252Z,99.90
2022-10-19T09:42:56.898Z,99.90
2022-10-19T09:45:45.167Z,99.90
2022-10-19T09:48:48.065Z,99.90
2022-10-19T09:51:16.797Z,99.90
2022-10-19T09:53:49.770Z,99.90
2022-10-19T09:56:20.507Z,99.90
2022-10-19T09:58:49.637Z,99.90
2022-10-19T10:01:41.555Z,99.90
2022-10-19T10:04:18.096Z,99.90
2022-10-19T10:06:47.881Z,99.90
2022-10-19T10:09:17.133Z,99.90
2022-10-19T10:11:47.526Z,99.90
2022-10-19T10:14:33.330Z,99.90
2022-10-19T10:17:19.167Z,99.90
2022-10-19T10:20:05.216Z,99.90
2022-10-19T10:22:35.309Z,99.90
2022-10-19T10:25:12.254Z,99.90
2022-10-19T10:27:40.021Z,99.90
2022-10-19T10:30:16.764Z,99.90
2022-10-19T10:32:49.886Z,99.90
2022-10-19T10:35:36.719Z,99.90
2022-10-19T10:38:13.565Z,93.50
2022-10-19T10:40:41.251Z,96.60
2022-10-19T10:43:15.408Z,87.40
2022-10-19T10:45:49.015Z,77.90
2022-10-19T10:48:26.839Z,88.50
2022-10-19T10:50:53.675Z,82.00
2022-10-19T10:53:39.781Z,84.80
2022-10-19T10:56:25.047Z,80.10
2022-10-19T10:59:02.987Z,83.30
2022-10-19T11:01:35.391Z,82.30
2022-10-19T11:04:11.820Z,86.50
2022-10-19T11:06:47.428Z,86.60
2022-10-19T11:09:33.034Z,91.30
2022-10-19T11:12:03.455Z,92.20
2022-10-19T11:14:49.935Z,92.90
2022-10-19T11:17:25.390Z,92.40
2022-10-19T11:19:52.490Z,93.80
2022-10-19T11:22:30.178Z,95.40
2022-10-19T11:25:04.560Z,92.80
2022-10-19T11:27:56.211Z,94.40
2022-10-19T11:30:25.514Z,93.50
2022-10-19T11:33:13.316Z,93.70
2022-10-19T11:35:58.390Z,91.80
2022-10-19T11:38:39.059Z,92.10
2022-10-19T11:41:27.248Z,91.40
2022-10-19T11:44:05.486Z,90.90
2022-10-19T11:46:47.804Z,89.20
2022-10-19T11:49:34.387Z,90.30
2022-10-19T11:52:15.826Z,90.20
2022-10-19T11:54:54.732Z,90.10
2022-10-19T11:57:26.789Z,90.30
2022-10-19T12:00:13.757Z,91.80
2022-10-19T12:03:01.553Z,91.40
2022-10-19T12:05:48.824Z,91.40
2022-10-19T12:08:28.848Z,93.20
2022-10-19T12:11:20.451Z,92.70
2022-10-19T12:13:52.128Z,90.60
2022-10-19T12:16:21.495Z,90.40
2022-10-19T12:18:52.031Z,91.40
2022-10-19T12:21:35.926Z,91.20
2022-10-19T12:24:13.511Z,89.70
2022-10-19T12:26:40.890Z,89.60
2022-10-19T12:29:15.840Z,90.30
2022-10-19T12:31:43.553Z,90.80
2022-10-19T12:34:32.539Z,92.10
2022-10-19T12:37:10.135Z,91.60
2022-10-19T12:39:49.977Z,89.50
2022-10-19T12:42:16.905Z,86.50
2022-10-19T12:45:02.517Z,90.10
2022-10-19T12:47:29.284Z,89.60
2022-10-19T12:49:57.194Z,89.20
2022-10-19T12:52:44.506Z,87.10
2022-10-19T12:55:24.387Z,90.40
2022-10-19T12:58:01.266Z,90.00
2022-10-19T13:00:35.012Z,89.50
2022-10-19T13:03:15.953Z,90.80
2022-10-19T13:05:54.846Z,89.30
2022-10-19T13:08:28.781Z,90.40
2022-10-19T13:11:15.984Z,90.50
2022-10-19T13:14:19.791Z,90.70
2022-10-19T13:17:00.976Z,88.60
2022-10-19T13:19:28.332Z,91.50
2022-10-19T13:22:01.426Z,92.30
2022-10-19T13:24:34.912Z,91.60
2022-10-19T13:27:04.782Z,93.60
2022-10-19T13:29:38.364Z,92.40
2022-10-19T13:32:36.869Z,91.20
2022-10-19T13:35:27.077Z,91.70
2022-10-19T13:38:15.651Z,92.30
2022-10-19T13:40:48.415Z,92.90
2022-10-19T13:43:23.496Z,91.20
2022-10-19T13:46:16.666Z,90.40
2022-10-19T13:49:09.842Z,92.50
2022-10-19T13:51:55.451Z,91.80
2022-10-19T13:54:33.785Z,93.20
2022-10-19T13:57:25.312Z,92.60
2022-10-19T14:00:20.515Z,92.20
2022-10-19T14:03:13.240Z,92.20
2022-10-19T14:05:56.290Z,90.10
2022-10-19T14:08:49.704Z,92.90
2022-10-19T14:11:33.729Z,94.30
2022-10-19T14:14:13.309Z,93.50
2022-10-19T14:16:48.360Z,92.90
2022-10-19T14:19:29.371Z,92.90
2022-10-19T14:21:59.785Z,92.70
2022-10-19T14:24:33.754Z,93.80
2022-10-19T14:27:05.518Z,93.50
2022-10-19T14:29:46.211Z,93.40
2022-10-19T14:32:13.961Z,93.00
2022-10-19T14:34:46.111Z,93.00
2022-10-19T14:37:26.502Z,93.30
2022-10-19T14:40:00.905Z,92.80
2022-10-19T14:42:45.667Z,92.00
2022-10-19T14:45:25.480Z,93.60
2022-10-19T14:48:04.549Z,93.50
2022-10-19T14:50:47.367Z,93.80
2022-10-19T14:53:41.079Z,93.60
2022-10-19T14:56:30.312Z,92.10
2022-10-19T14:59:07.406Z,93.90
2022-10-19T15:01:35.301Z,93.30
2022-10-19T15:04:02.378Z,94.50
2022-10-19T15:06:35.411Z,95.90
2022-10-19T15:09:06.050Z,94.90
2022-10-19T15:11:43.894Z,94.90
2022-10-19T15:14:17.462Z,95.10
2022-10-19T15:16:56.715Z,95.40
2022-10-19T15:19:38.509Z,94.00
2022-10-19T15:22:14.275Z,94.10
2022-10-19T15:24:55.859Z,94.70
2022-10-19T15:27:35.794Z,93.80
2022-10-19T15:30:23.812Z,95.10
2022-10-19T15:32:56.339Z,94.90
2022-10-19T15:35:34.202Z,96.50
2022-10-19T15:38:10.134Z,96.50
2022-10-19T15:40:40.446Z,97.10
2022-10-19T15:43:32.962Z,97.80
2022-10-19T15:46:26.387Z,97.90
2022-10-19T15:48:55.737Z,98.70
2022-10-19T15:51:25.665Z,99.50
2022-10-19T15:53:57.758Z,99.90
2022-10-19T15:56:27.437Z,99.90
2022-10-19T15:58:57.279Z,99.90
2022-10-19T16:01:27.170Z,99.90
2022-10-19T16:03:54.674Z,99.90
2022-10-19T16:06:24.468Z,99.90
2022-10-19T16:08:51.315Z,99.90
2022-10-19T16:11:20.223Z,99.90
2022-10-19T16:13:47.328Z,99.90
2022-10-19T16:16:21.071Z,99.90
2022-10-19T16:18:48.420Z,99.90
2022-10-19T16:21:15.800Z,99.90
2022-10-19T16:23:42.684Z,99.90
2022-10-19T16:26:09.940Z,99.90
2022-10-19T16:28:36.886Z,99.90
2022-10-19T16:31:03.845Z,99.90
2022-10-19T16:33:30.674Z,99.90
2022-10-19T16:35:57.348Z,99.90
2022-10-19T16:38:24.348Z,99.90
2022-10-19T16:40:51.196Z,99.90
2022-10-19T16:43:18.179Z,99.90
2022-10-19T16:45:45.187Z,99.90
2022-10-19T16:48:12.670Z,99.90
2022-10-19T16:50:39.444Z,99.90
2022-10-19T16:53:12.239Z,99.90
2022-10-19T16:55:40.674Z,99.90
2022-10-19T16:58:07.790Z,99.90
2022-10-19T17:00:35.595Z,99.90
2022-10-19T17:03:02.421Z,99.90
2022-10-19T17:05:29.324Z,99.90
2022-10-19T17:07:56.438Z,99.90
2022-10-19T17:10:23.298Z,99.90
2022-10-19T17:12:49.967Z,99.90
2022-10-19T17:15:41.316Z,99.90
2022-10-19T17:18:03.648Z,99.90
2022-10-19T17:20:31.832Z,99.90
2022-10-19T17:22:58.805Z,99.90
2022-10-19T17:25:25.526Z,99.90
2022-10-19T17:27:52.696Z,99.90
2022-10-19T17:30:19.403Z,99.90
2022-10-19T17:32:46.048Z,99.90
2022-10-19T17:35:12.874Z,99.90
2022-10-19T17:37:39.618Z,99.90
2022-10-19T17:40:07.011Z,99.90
2022-10-19T17:42:36.719Z,99.90
2022-10-19T17:45:04.043Z,99.90
2022-10-19T17:47:30.783Z,99.90
2022-10-19T17:49:57.446Z,99.90
2022-10-19T17:52:24.080Z,99.90
2022-10-19T17:55:11.059Z,99.90
2022-10-19T17:57:37.704Z,99.90
2022-10-19T18:00:07.271Z,99.90
2022-10-19T18:02:40.097Z,99.90
2022-10-19T18:05:07.246Z,99.90
2022-10-19T18:07:34.416Z,99.90
2022-10-19T18:10:01.337Z,99.90
2022-10-19T18:12:28.190Z,99.90
2022-10-19T18:14:54.819Z,99.90
2022-10-19T18:17:24.133Z,99.90
2022-10-19T18:19:53.623Z,99.90
2022-10-19T18:22:21.758Z,99.90
2022-10-19T18:24:49.438Z,99.90
2022-10-19T18:27:16.155Z,99.90
2022-10-19T18:29:43.016Z,99.90
2022-10-19T18:32:10.999Z,99.90
2022-10-19T18:34:38.508Z,99.90
2022-10-19T18:37:05.602Z,99.90
2022-10-19T18:39:32.628Z,99.90
2022-10-19T18:41:59.292Z,99.90
2022-10-19T18:44:27.909Z,99.90
2022-10-19T18:46:56.818Z,99.90
2022-10-19T18:49:24.237Z,99.90
2022-10-19T18:51:55.026Z,99.90
2022-10-19T18:54:23.391Z,99.90
2022-10-19T18:56:50.049Z,99.90
2022-10-19T18:59:16.865Z,99.90
2022-10-19T19:01:43.818Z,99.90
2022-10-19T19:04:10.914Z,99.90
2022-10-19T19:06:38.882Z,99.90
2022-10-19T19:09:09.771Z,99.90
2022-10-19T19:11:38.369Z,99.90
2022-10-19T19:14:15.206Z,99.90
2022-10-19T19:16:43.764Z,99.90
2022-10-19T19:19:12.859Z,99.90
2022-10-19T19:21:42.424Z,99.90
2022-10-19T19:24:11.928Z,99.90
2022-10-19T19:26:41.359Z,99.90
2022-10-19T19:29:08.028Z,99.90
2022-10-19T19:31:34.983Z,99.90
2022-10-19T19:34:03.169Z,99.90
2022-10-19T19:36:29.976Z,99.90
2022-10-19T19:38:57.481Z,99.90
2022-10-19T19:41:24.688Z,99.90
2022-10-19T19:43:51.381Z,99.90
2022-10-19T19:46:19.133Z,99.90
2022-10-19T19:48:47.976Z,99.90
2022-10-19T19:51:17.575Z,99.90
2022-10-19T19:53:44.723Z,99.90
2022-10-19T19:56:13.300Z,99.90
2022-10-19T19:58:41.177Z,99.90
2022-10-19T20:01:13.612Z,99.90
2022-10-19T20:03:40.968Z,99.90
2022-10-19T20:06:07.780Z,99.90
2022-10-19T20:08:36.271Z,99.90
2022-10-19T20:11:05.872Z,99.90
2022-10-19T20:13:33.331Z,99.90
2022-10-19T20:16:07.274Z,99.90
2022-10-19T20:18:33.920Z,99.90
2022-10-19T20:21:05.284Z,99.90
2022-10-19T20:23:32.764Z,99.90
2022-10-19T20:25:59.515Z,99.90
2022-10-19T20:28:27.420Z,99.90
2022-10-19T20:31:02.334Z,99.90
2022-10-19T20:33:30.884Z,99.90
2022-10-19T20:36:01.733Z,99.90
2022-10-19T20:38:28.358Z,99.90
2022-10-19T20:40:55.557Z,99.90
2022-10-19T20:43:22.217Z,99.90
2022-10-19T20:45:48.837Z,99.90
2022-10-19T20:48:15.664Z,99.90
2022-10-19T20:50:42.308Z,99.90
2022-10-19T20:53:10.285Z,99.90
2022-10-19T20:55:36.902Z,99.90
2022-10-19T20:58:03.700Z,99.90
2022-10-19T21:00:30.361Z,99.90
2022-10-19T21:02:57.019Z,99.90
2022-10-19T21:05:23.689Z,99.90
2022-10-19T21:07:50.325Z,99.90
2022-10-19T21:10:16.999Z,99.90
2022-10-19T21:12:43.615Z,99.90
2022-10-19T21:15:10.447Z,99.90
2022-10-19T21:17:37.159Z,99.90
2022-10-19T21:20:03.930Z,99.90
2022-10-19T21:22:33.323Z,99.90
2022-10-19T21:25:02.543Z,99.90
2022-10-19T21:27:29.210Z,99.90
2022-10-19T21:29:55.919Z,99.90
2022-10-19T21:32:22.827Z,99.90
2022-10-19T21:34:49.489Z,99.90
2022-10-19T21:37:16.323Z,99.90
2022-10-19T21:39:43.161Z,99.90
2022-10-19T21:42:10.017Z,99.90
2022-10-19T21:44:36.743Z,99.90
2022-10-19T21:47:03.399Z,99.90
2022-10-19T21:49:30.084Z,99.90
2022-10-19T21:51:56.931Z,99.90
2022-10-19T21:54:25.270Z,99.90
2022-10-19T21:56:53.295Z,99.90
2022-10-19T21:59:20.342Z,99.90
2022-10-19T22:01:47.124Z,99.90
2022-10-19T22:04:16.227Z,99.90
2022-10-19T22:06:43.736Z,99.90
2022-10-19T22:09:14.042Z,99.90
2022-10-19T22:11:41.512Z,99.90
2022-10-19T22:14:08.364Z,99.90
2022-10-19T22:16:37.087Z,99.90
2022-10-19T22:19:05.515Z,99.90
2022-10-19T22:21:34.593Z,99.90
2022-10-19T22:24:07.663Z,99.90
2022-10-19T22:26:38.007Z,99.90
2022-10-19T22:29:05.540Z,99.90
2022-10-19T22:31:34.141Z,99.90
2022-10-19T22:34:02.380Z,99.90
2022-10-19T22:36:29.487Z,99.90
2022-10-19T22:38:56.150Z,99.90
2022-10-19T22:42:04.807Z,99.90
2022-10-19T22:44:31.991Z,99.90
2022-10-19T22:46:58.861Z,99.90
2022-10-19T22:49:25.580Z,99.90
2022-10-19T22:51:52.212Z,99.90
2022-10-19T22:54:18.878Z,99.90
2022-10-19T22:56:45.593Z,99.90
2022-10-19T22:59:12.312Z,99.90
2022-10-19T23:01:39.030Z,99.90
2022-10-19T23:04:05.981Z,99.90
2022-10-19T23:06:32.857Z,99.90
2022-10-19T23:08:59.617Z,99.90
2022-10-19T23:11:26.323Z,99.90
2022-10-19T23:13:53.092Z,99.90
2022-10-19T23:16:19.771Z,99.90
2022-10-19T23:18:46.543Z,99.90
2022-10-19T23:21:14.094Z,99.90
2022-10-19T23:23:41.808Z,99.90
2022-10-19T23:26:17.578Z,99.90
2022-10-19T23:28:46.095Z,99.90
2022-10-19T23:31:17.491Z,99.90
2022-10-19T23:33:44.752Z,99.90
2022-10-19T23:36:20.471Z,99.90
2022-10-19T23:38:49.009Z,99.90
2022-10-19T23:41:16.652Z,99.90
2022-10-19T23:43:43.295Z,99.90
2022-10-19T23:46:10.275Z,99.90
2022-10-19T23:48:37.535Z,99.90
2022-10-19T23:51:15.753Z,99.90
2022-10-19T23:53:44.923Z,99.90
2022-10-19T23:56:29.876Z,99.90
2022-10-19T23:58:56.628Z,99.90
